sensor_id;sensor_type;location;lat;lon;timestamp;P1;durP1;ratioP1;P2;durP2;ratioP2
27539;SDS011;15906;52.046;4.724;2023-04-24T20:53:51;12.85;;;2.42;;
27539;SDS011;15906;52.046;4.724;2023-04-24T20:56:16;13.60;;;2.22;;
27539;SDS011;15906;52.046;4.724;2023-04-24T20:59:23;8.27;;;2.20;;
27539;SDS011;15906;52.046;4.724;2023-04-24T21:01:48;7.28;;;2.00;;
27539;SDS011;15906;52.046;4.724;2023-04-24T21:04:14;10.23;;;2.10;;
27539;SDS011;15906;52.046;4.724;2023-04-24T21:06:40;7.28;;;1.90;;
27539;SDS011;15906;52.046;4.724;2023-04-24T21:09:05;9.18;;;2.22;;
27539;SDS011;15906;52.046;4.724;2023-04-24T21:11:33;10.93;;;1.85;;
27539;SDS011;15906;52.046;4.724;2023-04-24T21:13:59;9.05;;;2.50;;
27539;SDS011;15906;52.046;4.724;2023-04-24T21:16:24;8.13;;;1.80;;
27539;SDS011;15906;52.046;4.724;2023-04-24T21:18:50;9.00;;;2.40;;
27539;SDS011;15906;52.046;4.724;2023-04-24T21:21:15;8.85;;;2.05;;
27539;SDS011;15906;52.046;4.724;2023-04-24T21:23:41;7.15;;;2.45;;
27539;SDS011;15906;52.046;4.724;2023-04-24T21:26:06;11.95;;;2.60;;
27539;SDS011;15906;52.046;4.724;2023-04-24T21:28:32;6.85;;;2.17;;
27539;SDS011;15906;52.046;4.724;2023-04-24T21:30:58;7.88;;;2.05;;
27539;SDS011;15906;52.046;4.724;2023-04-24T21:33:23;14.65;;;2.78;;
27539;SDS011;15906;52.046;4.724;2023-04-24T21:35:49;12.18;;;2.42;;
27539;SDS011;15906;52.046;4.724;2023-04-24T21:38:15;11.70;;;2.58;;
27539;SDS011;15906;52.046;4.724;2023-04-24T21:40:43;10.13;;;2.78;;
27539;SDS011;15906;52.046;4.724;2023-04-24T21:43:09;11.13;;;3.00;;
27539;SDS011;15906;52.046;4.724;2023-04-24T21:45:36;11.75;;;2.83;;
27539;SDS011;15906;52.046;4.724;2023-04-24T21:48:01;9.45;;;3.00;;
27539;SDS011;15906;52.046;4.724;2023-04-24T21:50:27;14.57;;;2.50;;
27539;SDS011;15906;52.046;4.724;2023-04-24T21:52:53;6.93;;;2.42;;
27539;SDS011;15906;52.046;4.724;2023-04-24T21:55:18;12.90;;;3.13;;
27539;SDS011;15906;52.046;4.724;2023-04-24T21:57:45;12.88;;;2.97;;
27539;SDS011;15906;52.046;4.724;2023-04-24T22:00:11;13.48;;;4.13;;
27539;SDS011;15906;52.046;4.724;2023-04-24T22:02:37;14.80;;;3.40;;
27539;SDS011;15906;52.046;4.724;2023-04-24T22:05:03;15.48;;;3.28;;
27539;SDS011;15906;52.046;4.724;2023-04-24T22:07:31;15.18;;;3.25;;
27539;SDS011;15906;52.046;4.724;2023-04-24T22:09:58;13.10;;;2.88;;
27539;SDS011;15906;52.046;4.724;2023-04-24T22:12:23;11.88;;;3.03;;
27539;SDS011;15906;52.046;4.724;2023-04-24T22:14:49;15.73;;;4.25;;
27539;SDS011;15906;52.046;4.724;2023-04-24T22:17:15;15.15;;;2.95;;
27539;SDS011;15906;52.046;4.724;2023-04-24T22:19:41;14.05;;;3.30;;
27539;SDS011;15906;52.046;4.724;2023-04-24T22:22:07;14.50;;;3.78;;
27539;SDS011;15906;52.046;4.724;2023-04-24T22:24:33;18.08;;;3.83;;
27539;SDS011;15906;52.046;4.724;2023-04-24T22:26:59;16.65;;;3.95;;
27539;SDS011;15906;52.046;4.724;2023-04-24T22:29:25;15.93;;;4.28;;
27539;SDS011;15906;52.046;4.724;2023-04-24T22:31:50;10.90;;;4.20;;
27539;SDS011;15906;52.046;4.724;2023-04-24T22:34:20;17.45;;;3.47;;
27539;SDS011;15906;52.046;4.724;2023-04-24T22:36:45;18.25;;;3.65;;
27539;SDS011;15906;52.046;4.724;2023-04-24T22:39:11;14.48;;;3.35;;
27539;SDS011;15906;52.046;4.724;2023-04-24T22:41:39;14.52;;;3.35;;
27539;SDS011;15906;52.046;4.724;2023-04-24T22:44:05;16.08;;;3.78;;
27539;SDS011;15906;52.046;4.724;2023-04-24T22:46:31;16.77;;;4.15;;
27539;SDS011;15906;52.046;4.724;2023-04-24T22:48:56;15.80;;;3.42;;
27539;SDS011;15906;52.046;4.724;2023-04-24T22:51:22;12.55;;;4.30;;
27539;SDS011;15906;52.046;4.724;2023-04-24T22:53:48;16.52;;;4.22;;
27539;SDS011;15906;52.046;4.724;2023-04-24T22:56:13;12.90;;;4.03;;
27539;SDS011;15906;52.046;4.724;2023-04-24T22:58:39;16.20;;;4.28;;
27539;SDS011;15906;52.046;4.724;2023-04-24T23:01:05;14.65;;;4.53;;
27539;SDS011;15906;52.046;4.724;2023-04-24T23:03:31;15.27;;;4.45;;
27539;SDS011;15906;52.046;4.724;2023-04-24T23:05:57;12.20;;;3.85;;
27539;SDS011;15906;52.046;4.724;2023-04-24T23:08:22;19.48;;;4.30;;
27539;SDS011;15906;52.046;4.724;2023-04-24T23:10:48;18.77;;;4.90;;
27539;SDS011;15906;52.046;4.724;2023-04-24T23:13:13;14.20;;;5.03;;
27539;SDS011;15906;52.046;4.724;2023-04-24T23:15:39;13.52;;;4.00;;
27539;SDS011;15906;52.046;4.724;2023-04-24T23:18:05;20.40;;;4.28;;
27539;SDS011;15906;52.046;4.724;2023-04-24T23:20:31;16.02;;;4.95;;
27539;SDS011;15906;52.046;4.724;2023-04-24T23:22:57;17.33;;;4.68;;
27539;SDS011;15906;52.046;4.724;2023-04-24T23:25:22;16.80;;;4.20;;
27539;SDS011;15906;52.046;4.724;2023-04-24T23:27:48;11.80;;;3.92;;
27539;SDS011;15906;52.046;4.724;2023-04-24T23:30:13;19.20;;;4.40;;
27539;SDS011;15906;52.046;4.724;2023-04-24T23:32:39;20.73;;;4.78;;
27539;SDS011;15906;52.046;4.724;2023-04-24T23:35:04;21.50;;;4.38;;
27539;SDS011;15906;52.046;4.724;2023-04-24T23:37:30;21.75;;;4.93;;
27539;SDS011;15906;52.046;4.724;2023-04-24T23:39:56;20.52;;;4.55;;
27539;SDS011;15906;52.046;4.724;2023-04-24T23:42:21;24.33;;;6.00;;
27539;SDS011;15906;52.046;4.724;2023-04-24T23:44:47;17.05;;;4.00;;
27539;SDS011;15906;52.046;4.724;2023-04-24T23:47:12;16.52;;;3.53;;
27539;SDS011;15906;52.046;4.724;2023-04-24T23:49:38;21.33;;;4.60;;
27539;SDS011;15906;52.046;4.724;2023-04-24T23:52:04;16.73;;;5.00;;
27539;SDS011;15906;52.046;4.724;2023-04-24T23:54:29;13.27;;;3.65;;
27539;SDS011;15906;52.046;4.724;2023-04-24T23:56:55;16.33;;;5.07;;
27539;SDS011;15906;52.046;4.724;2023-04-24T23:59:21;17.02;;;4.50;;
